createdAt,value
2019-04-26T00:05:03.876Z,73
2019-04-26T00:10:37.677Z,75
2019-04-26T00:16:12.566Z,77
2019-04-26T00:21:45.186Z,79
2019-04-26T00:27:19.050Z,80
2019-04-26T00:32:52.197Z,81
2019-04-26T00:38:25.516Z,81
2019-04-26T00:43:58.925Z,83
2019-04-26T00:49:42.904Z,83
2019-04-26T00:55:04.551Z,83
2019-04-26T01:00:37.246Z,83
2019-04-26T01:06:01.730Z,84
2019-04-26T01:11:34.647Z,84
2019-04-26T01:17:07.309Z,86
2019-04-26T01:22:32.427Z,87
2019-04-26T01:28:06.037Z,89
2019-04-26T01:33:39.585Z,90
2019-04-26T01:39:13.212Z,90
2019-04-26T01:44:46.711Z,90
2019-04-26T01:50:20.966Z,91
2019-04-26T01:55:53.945Z,91
2019-04-26T02:01:27.549Z,91
2019-04-26T02:07:01.135Z,90
2019-04-26T02:12:34.751Z,89
2019-04-26T02:18:08.217Z,88
2019-04-26T02:23:41.767Z,88
2019-04-26T02:29:15.333Z,88
2019-04-26T02:34:48.789Z,89
2019-04-26T02:40:22.329Z,88
2019-04-26T02:45:55.876Z,89
2019-04-26T02:51:30.464Z,89
2019-04-26T02:57:02.699Z,89
2019-04-26T03:02:37.316Z,89
2019-04-26T03:08:09.567Z,90
2019-04-26T03:13:43.676Z,89
2019-04-26T03:19:16.238Z,90
2019-04-26T03:24:49.642Z,90
2019-04-26T03:30:20.425Z,91
2019-04-26T03:35:52.254Z,91
2019-04-26T03:41:13.900Z,91
2019-04-26T03:46:41.894Z,91
2019-04-26T03:52:14.350Z,91
2019-04-26T03:57:47.535Z,91
2019-04-26T04:03:20.482Z,91
2019-04-26T04:08:53.762Z,91
2019-04-26T04:14:26.857Z,91
2019-04-26T04:19:59.746Z,91
2019-04-26T04:25:32.708Z,91
2019-04-26T04:31:05.185Z,91
2019-04-26T04:36:38.045Z,91
2019-04-26T04:42:04.989Z,91
2019-04-26T04:47:38.277Z,91
2019-04-26T04:53:10.992Z,91
2019-04-26T04:58:44.852Z,91
2019-04-26T05:04:17.027Z,91
2019-04-26T05:09:49.704Z,91
2019-04-26T05:15:22.967Z,91
2019-04-26T05:20:56.238Z,91
2019-04-26T05:26:29.259Z,91
2019-04-26T05:32:02.322Z,91
2019-04-26T05:37:37.110Z,91
2019-04-26T05:43:08.994Z,91
2019-04-26T05:48:42.404Z,91
2019-04-26T05:54:15.841Z,92
2019-04-26T05:59:50.396Z,92
2019-04-26T06:05:22.778Z,92
2019-04-26T06:10:56.151Z,92
2019-04-26T06:16:29.572Z,91
2019-04-26T06:22:03.112Z,91
2019-04-26T06:27:36.433Z,91
2019-04-26T06:33:10.336Z,91
2019-04-26T06:38:44.253Z,92
2019-04-26T06:44:16.818Z,92
2019-04-26T06:49:50.051Z,92
2019-04-26T06:55:23.568Z,91
2019-04-26T07:00:57.553Z,90
2019-04-26T07:06:35.017Z,91
2019-04-26T07:12:03.486Z,91
2019-04-26T07:17:36.096Z,91
2019-04-26T07:23:08.878Z,91
2019-04-26T07:28:41.531Z,91
2019-04-26T07:34:14.399Z,91
2019-04-26T07:39:47.264Z,91
2019-04-26T07:45:20.657Z,91
2019-04-26T07:50:53.886Z,91
2019-04-26T07:56:26.513Z,91
2019-04-26T08:01:59.265Z,91
2019-04-26T08:07:32.305Z,91
2019-04-26T08:13:06.066Z,91
2019-04-26T08:18:38.196Z,91
2019-04-26T08:24:10.920Z,90
2019-04-26T08:29:43.888Z,89
2019-04-26T08:35:20.456Z,89
2019-04-26T08:40:49.814Z,89
2019-04-26T08:46:23.627Z,87
2019-04-26T08:51:55.875Z,89
2019-04-26T08:57:28.710Z,87
2019-04-26T09:03:11.190Z,87
2019-04-26T09:08:39.152Z,86
2019-04-26T09:14:08.724Z,88
2019-04-26T09:19:42.436Z,87
2019-04-26T09:25:15.820Z,88
2019-04-26T09:30:49.683Z,88
2019-04-26T09:36:23.569Z,86
2019-04-26T09:41:57.209Z,88
2019-04-26T09:47:32.151Z,87
2019-04-26T09:53:04.740Z,87
2019-04-26T09:58:38.396Z,86
2019-04-26T10:04:11.341Z,86
2019-04-26T10:09:44.289Z,86
2019-04-26T10:15:17.343Z,86
2019-04-26T10:20:51.047Z,86
2019-04-26T10:26:28.005Z,86
2019-04-26T10:31:58.504Z,84
2019-04-26T10:37:39.132Z,87
2019-04-26T10:43:05.885Z,87
2019-04-26T10:48:41.283Z,86
2019-04-26T10:54:13.439Z,87
2019-04-26T10:59:47.225Z,85
2019-04-26T11:05:21.062Z,84
2019-04-26T11:10:54.948Z,85
2019-04-26T11:16:28.740Z,85
2019-04-26T11:22:02.765Z,84
2019-04-26T11:27:40.045Z,83
2019-04-26T11:33:10.944Z,81
2019-04-26T11:38:44.325Z,83
2019-04-26T11:44:17.878Z,79
2019-04-26T11:49:51.937Z,79
2019-04-26T11:55:29.652Z,78
2019-04-26T12:01:00.560Z,77
2019-04-26T12:06:34.725Z,76
2019-04-26T12:12:12.601Z,71
2019-04-26T12:17:43.470Z,74
2019-04-26T12:23:20.471Z,74
2019-04-26T12:28:52.670Z,73
2019-04-26T12:34:26.854Z,70
2019-04-26T12:40:01.850Z,70
2019-04-26T12:45:36.912Z,68
2019-04-26T12:51:11.942Z,68
2019-04-26T12:56:46.547Z,66
2019-04-26T13:07:58.438Z,64
2019-04-26T13:47:12.928Z,65
2019-04-26T13:52:48.604Z,62
2019-04-26T13:58:25.528Z,61
2019-04-26T14:04:02.280Z,59
2019-04-26T14:09:35.673Z,59
2019-04-26T14:15:11.551Z,60
2019-04-26T14:20:47.829Z,61
2019-04-26T14:26:24.267Z,60
2019-04-26T14:37:37.781Z,61
2019-04-26T15:05:42.913Z,60
2019-04-26T15:11:16.328Z,63
2019-04-26T15:16:52.115Z,60
2019-04-26T15:22:27.876Z,61
2019-04-26T15:28:06.749Z,63
2019-04-26T15:33:37.799Z,61
2019-04-26T15:39:13.517Z,65
2019-04-26T15:44:47.962Z,62
2019-04-26T15:50:22.690Z,60
2019-04-26T15:55:57.204Z,61
2019-04-26T16:01:32.491Z,63
2019-04-26T16:07:06.184Z,61
2019-04-26T16:12:42.238Z,61
2019-04-26T16:18:17.343Z,62
2019-04-26T16:23:51.879Z,61
2019-04-26T16:29:24.391Z,62
2019-04-26T16:34:57.005Z,60
2019-04-26T16:40:32.454Z,64
2019-04-26T16:46:04.410Z,62
2019-04-26T16:51:38.265Z,60
2019-04-26T16:57:12.449Z,60
2019-04-26T17:02:45.461Z,61
2019-04-26T17:08:19.396Z,67
2019-04-26T17:13:56.717Z,69
2019-04-26T17:19:29.565Z,69
2019-04-26T17:24:59.589Z,70
2019-04-26T17:30:40.737Z,70
2019-04-26T17:36:06.553Z,67
2019-04-26T17:41:43.155Z,72
2019-04-26T17:47:13.327Z,69
2019-04-26T17:52:46.836Z,72
2019-04-26T17:58:27.224Z,70
2019-04-26T18:03:55.686Z,70
2019-04-26T18:09:41.230Z,70
2019-04-26T18:15:00.216Z,67
2019-04-26T18:20:33.551Z,69
2019-04-26T18:26:06.345Z,68
2019-04-26T18:31:39.567Z,68
2019-04-26T18:42:45.964Z,71
2019-04-26T18:48:19.029Z,70
2019-04-26T18:53:53.161Z,72
2019-04-26T18:59:27.679Z,73
2019-04-26T19:04:58.444Z,75
2019-04-26T19:10:34.086Z,78
2019-04-26T19:16:04.345Z,78
2019-04-26T19:21:39.184Z,78
2019-04-26T19:27:10.326Z,79
2019-04-26T19:32:43.255Z,81
2019-04-26T19:38:16.704Z,81
2019-04-26T19:43:49.125Z,80
2019-04-26T19:49:25.736Z,75
2019-04-26T19:54:55.987Z,75
2019-04-26T20:00:28.827Z,75
2019-04-26T20:06:01.722Z,76
2019-04-26T20:11:34.635Z,77
2019-04-26T20:17:07.392Z,77
2019-04-26T20:22:42.006Z,77
2019-04-26T20:28:14.055Z,76
2019-04-26T20:33:47.804Z,75
2019-04-26T20:39:20.845Z,75
2019-04-26T20:44:53.756Z,77
2019-04-26T20:50:28.453Z,80
2019-04-26T20:56:03.693Z,83
2019-04-26T21:01:33.708Z,83
2019-04-26T21:07:11.249Z,82
2019-04-26T21:12:41.758Z,83
2019-04-26T21:18:13.554Z,83
2019-04-26T21:23:46.395Z,83
2019-04-26T21:29:22.465Z,84
2019-04-26T21:34:53.778Z,85
2019-04-26T21:40:26.198Z,85
2019-04-26T21:46:07.514Z,85
2019-04-26T21:51:30.711Z,87
2019-04-26T21:57:03.801Z,87
2019-04-26T22:02:37.519Z,87
2019-04-26T22:08:09.182Z,87
2019-04-26T22:13:43.238Z,86
2019-04-26T22:19:14.834Z,87
2019-04-26T22:24:47.683Z,87
2019-04-26T22:30:22.613Z,87
2019-04-26T22:35:55.161Z,88
2019-04-26T22:41:28.459Z,87
2019-04-26T22:46:58.735Z,88
2019-04-26T22:52:31.179Z,88
2019-04-26T22:58:03.811Z,86
2019-04-26T23:03:36.731Z,86
2019-04-26T23:09:11.429Z,85
2019-04-26T23:14:43.742Z,86
2019-04-26T23:20:14.750Z,88
2019-04-26T23:25:48.314Z,89
2019-04-26T23:31:23.516Z,89
2019-04-26T23:36:55.206Z,89
2019-04-26T23:42:28.128Z,89
2019-04-26T23:48:00.872Z,90
2019-04-26T23:53:35.758Z,91
2019-04-26T23:59:06.214Z,90
